Cimil — LXCI — position and weather

sailwx.info

Track history (hours):
 
Tides and Currents Weather Stations Pressure Air Temp Water Temp Dewpoint Dewpoint Depression Visibility Wind Speed Wind Dir Waves Ship Positions

Cimil

Last reported at 2018-Feb-24 18:01 UTC. Time now 2018-Feb-24 18:18 UTC.
Position N 43°31' W 003°16'.

Length 100 m; draft 5.3 m.

Type: Tanker. MMSI: 253437000.

Date/timePositionNaut miles runAvg speedWind from/ knotsBaromVisibWave heightAir tempDewpointWater temp
2018-Feb-24 18:01N 43°31' W 003°16'611.1
2018-Feb-24 17:31N 43°27' W 003°10'510.2
2018-Feb-24 17:01N 43°23' W 003°05'2 3.5
2018-Feb-24 16:31N 43°22' W 003°04'0 0.1
2018-Feb-24 15:57N 43°22' W 003°04'0 0.0
2018-Feb-24 15:28N 43°22' W 003°04'0 0.0
2018-Feb-24 15:00N 43°22' W 003°04'0 0.0
2018-Feb-24 14:27N 43°22' W 003°04'0 0.0
2018-Feb-24 14:01N 43°22' W 003°04'0 0.0
2018-Feb-24 13:31N 43°22' W 003°04'0 0.0
2018-Feb-24 12:58N 43°22' W 003°04'0 0.0
2018-Feb-24 12:30N 43°22' W 003°04'0 0.0
2018-Feb-24 11:54N 43°22' W 003°04'0 0.0
2018-Feb-24 11:31N 43°22' W 003°04'0 0.0
2018-Feb-24 11:01N 43°22' W 003°04'0 0.0
2018-Feb-24 10:30N 43°22' W 003°04'1 1.9
2018-Feb-24 10:01N 43°21' W 003°03'2 3.7
2018-Feb-24 09:28N 43°22' W 003°05'0 0.0
2018-Feb-24 08:58N 43°22' W 003°05'0 0.0
2018-Feb-24 08:30N 43°22' W 003°05'0 0.0
2018-Feb-24 08:00N 43°22' W 003°06'0 0.0
2018-Feb-24 07:30N 43°22' W 003°06'0 0.0
2018-Feb-24 07:00N 43°22' W 003°06'0 0.0
2018-Feb-24 06:30N 43°22' W 003°06'0 0.0
2018-Feb-24 06:00N 43°22' W 003°06'0 0.0
2018-Feb-24 05:30N 43°22' W 003°06'0 0.0
2018-Feb-24 05:00N 43°22' W 003°05'0 0.0
2018-Feb-24 04:30N 43°22' W 003°06'0 0.0
2018-Feb-24 04:00N 43°22' W 003°06'0 0.0
2018-Feb-24 03:30N 43°22' W 003°06'0 0.0
2018-Feb-24 03:00N 43°22' W 003°06'0 0.0
2018-Feb-24 02:30N 43°22' W 003°06'0 0.0
2018-Feb-24 02:00N 43°22' W 003°06'0 0.0
2018-Feb-24 01:30N 43°22' W 003°06'0 0.0
2018-Feb-24 01:00N 43°22' W 003°06'0 0.0
2018-Feb-24 00:30N 43°22' W 003°05'0 0.0
2018-Feb-24 00:00N 43°22' W 003°05'0 0.0
2018-Feb-23 23:30N 43°22' W 003°05'0 0.1
2018-Feb-23 23:00N 43°22' W 003°06'0 0.1
2018-Feb-23 22:30N 43°22' W 003°05'0 0.0
2018-Feb-23 22:00N 43°22' W 003°05'0 0.0
2018-Feb-23 21:30N 43°22' W 003°06'0 0.0
2018-Feb-23 21:00N 43°22' W 003°06'0 0.0
2018-Feb-23 20:30N 43°22' W 003°06'0 0.0
2018-Feb-23 20:00N 43°22' W 003°06'0 0.0
2018-Feb-23 19:30N 43°22' W 003°06'0 0.0
2018-Feb-23 19:00N 43°22' W 003°06'0 0.0
2018-Feb-23 18:30N 43°22' W 003°05'0 0.0
2018-Feb-23 18:00N 43°22' W 003°05'0 0.0
2018-Feb-23 17:30N 43°22' W 003°06'0 0.0
2018-Feb-23 17:00N 43°22' W 003°06'0 0.0
2018-Feb-23 16:30N 43°22' W 003°06'0 0.0
2018-Feb-23 16:00N 43°22' W 003°06'0 0.0
2018-Feb-23 15:30N 43°22' W 003°05'0 0.0
2018-Feb-23 15:00N 43°22' W 003°05'0 0.0
2018-Feb-23 14:30N 43°22' W 003°06'0 0.0
2018-Feb-23 14:00N 43°22' W 003°06'0 0.5
2018-Feb-23 13:30N 43°22' W 003°05'2 4.8
2018-Feb-23 13:00N 43°24' W 003°06'5 9.6
2018-Feb-23 12:30N 43°29' W 003°09'510.4
2018-Feb-23 12:00N 43°34' W 003°11'510.4
2018-Feb-23 11:30N 43°39' W 003°13'610.2
2018-Feb-23 10:54N 43°44' W 003°16'26110.0
2018-Feb-22 08:49N 47°48' W 005°29'4 9.7
2018-Feb-22 08:27N 47°52' W 005°31'5 9.5
2018-Feb-22 07:55N 47°56' W 005°33'4 9.0
2018-Feb-22 07:27N 48°00' W 005°36'5 8.7
2018-Feb-22 06:55N 48°05' W 005°38'4 8.5
2018-Feb-22 06:30N 48°08' W 005°40'4 8.2
2018-Feb-22 05:57N 48°12' W 005°42'4 8.3
2018-Feb-22 05:27N 48°16' W 005°44'5 7.9
2018-Feb-22 04:49N 48°21' W 005°47'2 7.9
2018-Feb-22 04:30N 48°23' W 005°49'6 7.9
2018-Feb-22 03:47N 48°28' W 005°52'8 7.8
2018-Feb-22 02:47N 48°36' W 005°56'113 9.5
2018-Feb-21 14:52N 49°43' W 003°37'511.1
2018-Feb-21 14:27N 49°45' W 003°31'510.9
2018-Feb-21 14:00N 49°48' W 003°24'510.5
2018-Feb-21 13:30N 49°51' W 003°17'510.1
2018-Feb-21 13:00N 49°53' W 003°11'5 9.5
2018-Feb-21 12:30N 49°55' W 003°04'4 9.0
2018-Feb-21 12:00N 49°57' W 002°58'4 8.5
2018-Feb-21 11:30N 49°58' W 002°52'5 8.0
2018-Feb-21 10:55N 49°60' W 002°45'4 7.8
2018-Feb-21 10:26N 50°01' W 002°39'5 7.7
2018-Feb-21 09:50N 50°02' W 002°32'22 9.1
2018-Feb-21 07:28N 50°07' W 001°59'511.3
2018-Feb-21 07:00N 50°09' W 001°52'612.1
2018-Feb-21 06:30N 50°11' W 001°43'612.7
2018-Feb-21 06:00N 50°12' W 001°33'713.0
2018-Feb-21 05:30N 50°14' W 001°23'713.1
2018-Feb-21 04:59N 50°16' W 001°13'2911.9
2018-Feb-21 02:35N 50°23' W 000°30'110.5
2018-Feb-21 02:30N 50°24' W 000°28'510.1
2018-Feb-21 02:00N 50°25' W 000°21'5 9.5
2018-Feb-21 01:30N 50°26' W 000°14'5 9.0
2018-Feb-21 01:00N 50°27' W 000°07'4 8.5
2018-Feb-21 00:30N 50°28' W 000°00'4 8.2
2018-Feb-21 00:00N 50°29' E 000°06'4 8.2
2018-Feb-20 23:30N 50°30' E 000°12'4 8.3
2018-Feb-20 23:00N 50°31' E 000°18'4 8.8
2018-Feb-20 22:30N 50°32' E 000°25'5 9.5
2018-Feb-20 22:00N 50°34' E 000°32'510.2
2018-Feb-20 21:30N 50°36' E 000°39'510.9
2018-Feb-20 21:00N 50°39' E 000°46'611.4
2018-Feb-20 20:30N 50°43' E 000°54'611.7
2018-Feb-20 20:00N 50°46' E 001°01'611.6
2018-Feb-20 19:30N 50°50' E 001°09'611.3
2018-Feb-20 19:00N 50°53' E 001°16'611.1
2018-Feb-20 18:30N 50°57' E 001°21'510.4
2018-Feb-20 18:00N 51°01' E 001°27'4 8.8
2018-Feb-20 17:30N 51°04' E 001°32'4 7.3
2018-Feb-20 17:00N 51°07' E 001°36'4 7.2
2018-Feb-20 16:30N 51°09' E 001°40'4 7.2
2018-Feb-20 16:00N 51°12' E 001°44'3 6.8
2018-Feb-20 15:30N 51°15' E 001°48'3 5.6
2018-Feb-20 15:00N 51°17' E 001°50'4 7.6
2018-Feb-20 14:30N 51°20' E 001°53'4 8.4
2018-Feb-20 14:00N 51°24' E 001°57'4 8.0
2018-Feb-20 13:30N 51°24' E 002°03'5 9.7
2018-Feb-20 13:00N 51°22' E 002°10'5 9.8
2018-Feb-20 12:31N 51°20' E 002°17'611.2
2018-Feb-20 12:00N 51°22' E 002°26'611.5
2018-Feb-20 11:31N 51°23' E 002°35'610.9
2018-Feb-20 11:00N 51°22' E 002°43'510.1
2018-Feb-20 10:30N 51°23' E 002°51'611.2
2018-Feb-20 10:00N 51°24' E 002°60'510.9
2018-Feb-20 09:30N 51°24' E 003°09'611.9
2018-Feb-20 09:00N 51°25' E 003°18'611.9
2018-Feb-20 08:30N 51°25' E 003°28'5 9.6
2018-Feb-20 08:00N 51°25' E 003°35'510.0
2018-Feb-20 07:30N 51°23' E 003°43'510.2
2018-Feb-20 07:00N 51°20' E 003°49'0 0.6
2018-Feb-20 06:30N 51°20' E 003°49'1 2.8
2018-Feb-20 06:00N 51°19' E 003°50'3 6.0
2018-Feb-20 05:31N 51°16' E 003°50'4 7.0
2018-Feb-20 05:00N 51°12' E 003°48'4 7.1
2018-Feb-20 04:30N 51°09' E 003°47'3 6.9
2018-Feb-20 04:01N 51°06' E 003°44'1 1.9
2018-Feb-20 03:31N 51°05' E 003°44'0 0.0
2018-Feb-20 03:00N 51°05' E 003°44'0 0.0
2018-Feb-20 02:28N 51°05' E 003°44'0 0.0
2018-Feb-20 01:58N 51°05' E 003°44'0 0.0
2018-Feb-20 01:28N 51°05' E 003°44'0 0.0
2018-Feb-20 00:53N 51°05' E 003°44'0 0.0
2018-Feb-20 00:29N 51°05' E 003°44'0 0.0
2018-Feb-20 00:00N 51°05' E 003°44'0 0.0
2018-Feb-19 23:30N 51°05' E 003°44'0 0.0
2018-Feb-19 23:00N 51°05' E 003°44'0 0.0
2018-Feb-19 22:31N 51°05' E 003°44'0 0.0
2018-Feb-19 22:00N 51°05' E 003°44'0 0.1
2018-Feb-19 21:30N 51°05' E 003°44'0 0.1
2018-Feb-19 21:00N 51°05' E 003°44'0 0.0
2018-Feb-19 20:30N 51°05' E 003°44'0 0.0
2018-Feb-19 20:00N 51°05' E 003°44'0 0.0
2018-Feb-19 19:30N 51°05' E 003°44'0 0.0
2018-Feb-19 18:59N 51°05' E 003°44'0 0.1
2018-Feb-19 18:30N 51°05' E 003°44'0 0.0
2018-Feb-19 18:00N 51°05' E 003°44'0 0.0
2018-Feb-19 17:30N 51°05' E 003°44'0 0.0
2018-Feb-19 17:00N 51°05' E 003°44'0 0.0
2018-Feb-19 16:30N 51°05' E 003°44'0 0.0
2018-Feb-19 16:00N 51°05' E 003°44'0 0.0
2018-Feb-19 15:27N 51°05' E 003°44'0 0.0
2018-Feb-19 14:55N 51°05' E 003°44'0 0.0
2018-Feb-19 14:30N 51°05' E 003°44'0 0.0
2018-Feb-19 14:00N 51°05' E 003°44'0 0.0
2018-Feb-19 13:30N 51°05' E 003°44'0 0.0
2018-Feb-19 12:58N 51°05' E 003°44'0 0.0
2018-Feb-19 12:25N 51°05' E 003°44'0 0.0
2018-Feb-19 12:01N 51°05' E 003°44'0 0.0
2018-Feb-19 11:31N 51°05' E 003°44'0 0.0
2018-Feb-19 11:00N 51°05' E 003°44'0 0.0
2018-Feb-19 10:30N 51°05' E 003°44'0 0.0
2018-Feb-19 10:00N 51°05' E 003°44'0 0.0
2018-Feb-19 09:29N 51°05' E 003°44'0 0.0
2018-Feb-19 08:59N 51°05' E 003°44'0 0.0
2018-Feb-19 08:30N 51°05' E 003°44'0 0.0
2018-Feb-19 08:00N 51°05' E 003°44'0 0.0
2018-Feb-19 07:28N 51°05' E 003°44'0 0.0
2018-Feb-19 06:58N 51°05' E 003°44'0 0.0
2018-Feb-19 06:29N 51°05' E 003°44'0 0.0
2018-Feb-19 06:00N 51°05' E 003°44'0 0.0
2018-Feb-19 05:30N 51°05' E 003°44'0 0.0
2018-Feb-19 04:59N 51°05' E 003°44'0 0.0
2018-Feb-19 04:30N 51°05' E 003°44'0 0.0
2018-Feb-19 04:01N 51°05' E 003°44'0 0.0
2018-Feb-19 03:30N 51°05' E 003°44'0 0.0
2018-Feb-19 03:00N 51°05' E 003°44'0 0.0
2018-Feb-19 02:30N 51°05' E 003°44'0 0.0
2018-Feb-19 02:00N 51°05' E 003°44'0 0.0
2018-Feb-19 01:28N 51°05' E 003°44'0 0.0
2018-Feb-19 01:00N 51°05' E 003°44'0 0.0
2018-Feb-19 00:28N 51°05' E 003°44'0 0.0
2018-Feb-19 00:01N 51°05' E 003°44'0 0.0
2018-Feb-18 23:30N 51°05' E 003°44'0 0.0
2018-Feb-18 23:00N 51°05' E 003°44'0 0.0
2018-Feb-18 22:31N 51°05' E 003°44'1 2.4
2018-Feb-18 22:00N 51°06' E 003°44'4 8.1
2018-Feb-18 21:30N 51°10' E 003°47'4 8.4
2018-Feb-18 21:00N 51°14' E 003°48'4 8.0
2018-Feb-18 20:30N 51°18' E 003°50'2 4.6
2018-Feb-18 20:01N 51°20' E 003°49'1 2.2
2018-Feb-18 19:30N 51°21' E 003°48'4 7.3
2018-Feb-18 19:00N 51°23' E 003°43'3 6.5
2018-Feb-18 18:30N 51°25' E 003°40'3 6.8
2018-Feb-18 18:00N 51°26' E 003°34'3 6.6
2018-Feb-18 17:31N 51°28' E 003°31'4 8.2
2018-Feb-18 17:01N 51°31' E 003°26'4 8.2
2018-Feb-18 16:30N 51°35' E 003°24'4 9.0
2018-Feb-18 16:00N 51°39' E 003°20'5 8.9
2018-Feb-18 15:27N 51°43' E 003°17'4 8.0
2018-Feb-18 14:57N 51°47' E 003°21'1 0.7
2018-Feb-18 13:48N 51°47' E 003°22'0 0.1
2018-Feb-18 13:27N 51°47' E 003°22'0 0.1
2018-Feb-18 12:39N 51°47' E 003°22'0 0.0
2018-Feb-18 12:06N 51°47' E 003°22'0 0.1
2018-Feb-18 11:57N 51°47' E 003°22'0 0.0
2018-Feb-18 11:27N 51°47' E 003°22'0 0.0
2018-Feb-18 11:00N 51°47' E 003°22'0 0.0
2018-Feb-18 10:30N 51°47' E 003°22'0 0.0
2018-Feb-18 09:51N 51°47' E 003°22'0 0.0
2018-Feb-18 09:21N 51°47' E 003°22'0 0.0
2018-Feb-18 08:54N 51°47' E 003°22'0 0.1
2018-Feb-18 08:27N 51°47' E 003°22'0 0.1
2018-Feb-18 07:54N 51°47' E 003°22'0 0.0
2018-Feb-18 07:30N 51°47' E 003°22'0 0.0
2018-Feb-18 06:48N 51°47' E 003°22'0 0.0
2018-Feb-18 06:24N 51°47' E 003°22'0 0.0
2018-Feb-18 04:36N 51°47' E 003°22'0 0.0
2018-Feb-18 03:51N 51°47' E 003°22'0 0.0
2018-Feb-18 03:18N 51°47' E 003°22'0 0.0
2018-Feb-18 03:00N 51°47' E 003°22'0 0.0
2018-Feb-18 01:42N 51°47' E 003°22'0 0.1
2018-Feb-17 23:54N 51°47' E 003°22'0 0.0
2018-Feb-17 23:24N 51°47' E 003°22'0 0.0
2018-Feb-17 23:00N 51°47' E 003°22'0 0.0
2018-Feb-17 22:12N 51°47' E 003°22'0 0.0
2018-Feb-17 21:06N 51°47' E 003°22'0 0.0
2018-Feb-17 20:48N 51°47' E 003°22'0 0.0
2018-Feb-17 20:27N 51°47' E 003°22'0 0.1
2018-Feb-17 18:09N 51°47' E 003°22'0 0.0
2018-Feb-17 17:57N 51°47' E 003°22'0 0.0
2018-Feb-17 17:17N 51°47' E 003°22'0 0.0
2018-Feb-17 16:57N 51°47' E 003°22'0 0.0
2018-Feb-17 16:26N 51°47' E 003°22'0 0.0
2018-Feb-17 15:59N 51°47' E 003°22'0 0.0
2018-Feb-17 15:27N 51°47' E 003°22'1 1.7
2018-Feb-17 14:59N 51°46' E 003°21'4 7.9
2018-Feb-17 14:28N 51°44' E 003°16'511.3
2018-Feb-17 13:59N 51°39' E 003°20'510.9
2018-Feb-17 13:30N 51°35' E 003°24'510.2
2018-Feb-17 13:00N 51°30' E 003°28'5 9.1
2018-Feb-17 12:30N 51°27' E 003°33'4 7.7
2018-Feb-17 12:00N 51°25' E 003°39'4 8.0
2018-Feb-17 11:30N 51°23' E 003°44'5 9.0
2018-Feb-17 11:00N 51°21' E 003°51'4 9.2
2018-Feb-17 10:30N 51°23' E 003°57'4 7.9
2018-Feb-17 10:00N 51°26' E 004°01'5 9.9
2018-Feb-17 09:30N 51°22' E 004°07'4 8.0
2018-Feb-17 09:00N 51°22' E 004°13'3 6.3
2018-Feb-17 08:30N 51°21' E 004°17'0 0.0
2018-Feb-17 08:00N 51°21' E 004°17'0 0.7
2018-Feb-17 07:30N 51°21' E 004°18'3 5.3
2018-Feb-17 07:00N 51°18' E 004°20'3 5.7
2018-Feb-17 06:31N 51°16' E 004°22'0 0.1
2018-Feb-17 05:59N 51°16' E 004°22'0 0.0
2018-Feb-17 05:29N 51°16' E 004°22'0 0.0
2018-Feb-17 04:59N 51°16' E 004°22'0 0.0
2018-Feb-17 04:29N 51°16' E 004°22'0 0.0
2018-Feb-17 03:56N 51°16' E 004°22'0 0.0
2018-Feb-17 03:29N 51°16' E 004°22'0 0.0
2018-Feb-17 02:59N 51°16' E 004°22'0 0.0
2018-Feb-17 02:29N 51°16' E 004°22'0 0.0
2018-Feb-17 01:59N 51°16' E 004°22'0 0.0
2018-Feb-17 01:29N 51°16' E 004°22'0 0.0
2018-Feb-17 00:59N 51°16' E 004°22'0 0.0
2018-Feb-17 00:29N 51°16' E 004°22'0 0.0
2018-Feb-16 23:59N 51°16' E 004°22'0 0.0
2018-Feb-16 23:29N 51°16' E 004°22'0 0.5
2018-Feb-16 23:00N 51°16' E 004°21'1 2.7
2018-Feb-16 22:31N 51°17' E 004°20'0 0.0
2018-Feb-16 22:01N 51°17' E 004°20'2 3.5
2018-Feb-16 21:31N 51°18' E 004°18'1 1.1
2018-Feb-16 20:58N 51°18' E 004°17'0 0.0
2018-Feb-16 20:30N 51°18' E 004°17'0 0.0
2018-Feb-16 19:58N 51°18' E 004°17'0 0.0
2018-Feb-16 19:27N 51°18' E 004°17'0 0.0
2018-Feb-16 19:01N 51°18' E 004°17'0 0.0
2018-Feb-16 18:30N 51°18' E 004°17'0 0.0
2018-Feb-16 17:58N 51°18' E 004°17'0 0.0
2018-Feb-16 17:31N 51°18' E 004°17'0 0.0
2018-Feb-16 16:57N 51°18' E 004°17'0 0.0
2018-Feb-16 16:25N 51°18' E 004°17'0 0.0
2018-Feb-16 15:57N 51°18' E 004°17'0 0.0
2018-Feb-16 15:30N 51°18' E 004°17'0 0.0
2018-Feb-16 15:01N 51°18' E 004°17'0 0.0
2018-Feb-16 14:31N 51°18' E 004°17'0 0.0
2018-Feb-16 14:00N 51°18' E 004°17'0 0.0
2018-Feb-16 13:31N 51°18' E 004°17'0 0.0
2018-Feb-16 13:00N 51°18' E 004°17'0 0.0
2018-Feb-16 12:27N 51°18' E 004°17'0 0.0
2018-Feb-16 11:54N 51°18' E 004°17'0 0.0
2018-Feb-16 11:30N 51°18' E 004°17'0 0.0
2018-Feb-16 11:00N 51°18' E 004°17'0 0.0
2018-Feb-16 10:31N 51°18' E 004°17'0 0.1
2018-Feb-16 10:00N 51°18' E 004°17'0 0.0
2018-Feb-16 09:24N 51°18' E 004°17'0 0.0
2018-Feb-16 09:00N 51°18' E 004°17'0 0.0
2018-Feb-16 08:30N 51°18' E 004°17'0 0.0
2018-Feb-16 08:00N 51°18' E 004°17'0 0.0
2018-Feb-16 07:27N 51°18' E 004°17'0 0.0
2018-Feb-16 06:57N 51°18' E 004°17'0 0.0
2018-Feb-16 06:30N 51°18' E 004°17'0 0.0
2018-Feb-16 05:58N 51°18' E 004°17'0 0.0
2018-Feb-16 05:30N 51°18' E 004°17'0 0.0
2018-Feb-16 04:55N 51°18' E 004°17'0 0.0
2018-Feb-16 04:31N 51°18' E 004°17'0 0.0
2018-Feb-16 04:00N 51°18' E 004°17'0 0.0
2018-Feb-16 03:28N 51°18' E 004°17'0 0.0
2018-Feb-16 03:00N 51°18' E 004°17'0 0.0
2018-Feb-16 02:31N 51°18' E 004°17'0 0.0
2018-Feb-16 02:01N 51°18' E 004°17'0 0.0
2018-Feb-16 01:30N 51°18' E 004°17'0 0.0
2018-Feb-16 01:00N 51°18' E 004°17'0 0.0
2018-Feb-16 00:31N 51°18' E 004°17'0 0.0
2018-Feb-15 23:57N 51°18' E 004°17'0 0.0
2018-Feb-15 23:30N 51°18' E 004°17'0 0.0
2018-Feb-15 23:00N 51°18' E 004°17'0 0.0
2018-Feb-15 22:22N 51°18' E 004°17'0 0.1
2018-Feb-15 22:01N 51°18' E 004°17'0 0.0
2018-Feb-15 21:30N 51°18' E 004°17'2 3.5
2018-Feb-15 21:00N 51°20' E 004°16'4 7.6
2018-Feb-15 20:30N 51°23' E 004°13'3 5.8
2018-Feb-15 20:00N 51°22' E 004°08'4 7.4
2018-Feb-15 19:30N 51°23' E 004°03'4 7.0
2018-Feb-15 19:00N 51°26' E 004°00'4 7.1
2018-Feb-15 18:30N 51°23' E 003°57'3 6.6
2018-Feb-15 18:00N 51°21' E 003°53'3 6.2
2018-Feb-15 17:30N 51°21' E 003°48'3 6.7
2018-Feb-15 17:00N 51°23' E 003°43'3 6.8
2018-Feb-15 16:30N 51°25' E 003°39'2 3.6
2018-Feb-15 15:59N 51°25' E 003°36'0 0.2
2018-Feb-15 15:30N 51°25' E 003°36'0 0.3
2018-Feb-15 15:00N 51°25' E 003°37'0 0.0
2018-Feb-15 14:30N 51°25' E 003°37'0 0.0
2018-Feb-15 14:00N 51°25' E 003°37'0 0.1
2018-Feb-15 13:30N 51°25' E 003°37'0 0.8
2018-Feb-15 13:00N 51°25' E 003°37'510.7
2018-Feb-15 12:30N 51°25' E 003°29'613.1
2018-Feb-15 12:00N 51°24' E 003°18'612.8
2018-Feb-15 11:30N 51°23' E 003°08'612.2
2018-Feb-15 11:00N 51°22' E 002°59'611.1
2018-Feb-15 10:30N 51°21' E 002°50'4 8.7
2018-Feb-15 10:00N 51°22' E 002°43'4 8.9
2018-Feb-15 09:30N 51°22' E 002°36'5 9.1
2018-Feb-15 08:59N 51°22' E 002°28'4 8.4
2018-Feb-15 08:30N 51°20' E 002°22'4 7.3
2018-Feb-15 07:59N 51°18' E 002°17'4 8.9
2018-Feb-15 07:30N 51°16' E 002°11'5 9.2
2018-Feb-15 07:00N 51°14' E 002°05'4 8.8
2018-Feb-15 06:30N 51°12' E 001°59'5 9.5
2018-Feb-15 06:00N 51°10' E 001°52'5 9.1
2018-Feb-15 05:30N 51°07' E 001°46'4 8.8
2018-Feb-15 05:00N 51°03' E 001°41'4 8.5
2018-Feb-15 04:30N 50°60' E 001°37'5 9.1
2018-Feb-15 04:00N 50°57' E 001°32'4 8.7
2018-Feb-15 03:30N 50°53' E 001°28'5 9.3
2018-Feb-15 03:00N 50°49' E 001°27'610.3
2018-Feb-15 02:24N 50°43' E 001°23'4 9.4
2018-Feb-15 02:00N 50°40' E 001°19'47 9.5
2018-Feb-14 21:03N 50°22' E 000°10'0 9.9
2018-Feb-14 21:00N 50°22' E 000°09'5 9.8
2018-Feb-14 20:30N 50°21' E 000°02'5 9.9
2018-Feb-14 20:00N 50°20' W 000°06'510.4
2018-Feb-14 19:30N 50°18' W 000°14'  
Track history (hours):
 
Tides and Currents Weather Stations Pressure Air Temp Water Temp Dewpoint Dewpoint Depression Visibility Wind Speed Wind Dir Waves Ship Positions

Cimil

Last reported at 2018-Feb-24 18:01 UTC. Time now 2018-Feb-24 18:18 UTC.
Position N 43°31' W 003°16'.

Length 100 m; draft 5.3 m.

Type: Tanker. MMSI: 253437000.

Date/timePositionNaut miles runAvg speedWind from/ knotsBaromVisibWave heightAir tempDewpointWater temp
2018-Feb-24 18:01N 43°31' W 003°16'611.1
2018-Feb-24 17:31N 43°27' W 003°10'510.2
2018-Feb-24 17:01N 43°23' W 003°05'2 3.5
2018-Feb-24 16:31N 43°22' W 003°04'0 0.1
2018-Feb-24 15:57N 43°22' W 003°04'0 0.0
2018-Feb-24 15:28N 43°22' W 003°04'0 0.0
2018-Feb-24 15:00N 43°22' W 003°04'0 0.0
2018-Feb-24 14:27N 43°22' W 003°04'0 0.0
2018-Feb-24 14:01N 43°22' W 003°04'0 0.0
2018-Feb-24 13:31N 43°22' W 003°04'0 0.0
2018-Feb-24 12:58N 43°22' W 003°04'0 0.0
2018-Feb-24 12:30N 43°22' W 003°04'0 0.0
2018-Feb-24 11:54N 43°22' W 003°04'0 0.0
2018-Feb-24 11:31N 43°22' W 003°04'0 0.0
2018-Feb-24 11:01N 43°22' W 003°04'0 0.0
2018-Feb-24 10:30N 43°22' W 003°04'1 1.9
2018-Feb-24 10:01N 43°21' W 003°03'2 3.7
2018-Feb-24 09:28N 43°22' W 003°05'0 0.0
2018-Feb-24 08:58N 43°22' W 003°05'0 0.0
2018-Feb-24 08:30N 43°22' W 003°05'0 0.0
2018-Feb-24 08:00N 43°22' W 003°06'0 0.0
2018-Feb-24 07:30N 43°22' W 003°06'0 0.0
2018-Feb-24 07:00N 43°22' W 003°06'0 0.0
2018-Feb-24 06:30N 43°22' W 003°06'0 0.0
2018-Feb-24 06:00N 43°22' W 003°06'0 0.0
2018-Feb-24 05:30N 43°22' W 003°06'0 0.0
2018-Feb-24 05:00N 43°22' W 003°05'0 0.0
2018-Feb-24 04:30N 43°22' W 003°06'0 0.0
2018-Feb-24 04:00N 43°22' W 003°06'0 0.0
2018-Feb-24 03:30N 43°22' W 003°06'0 0.0
2018-Feb-24 03:00N 43°22' W 003°06'0 0.0
2018-Feb-24 02:30N 43°22' W 003°06'0 0.0
2018-Feb-24 02:00N 43°22' W 003°06'0 0.0
2018-Feb-24 01:30N 43°22' W 003°06'0 0.0
2018-Feb-24 01:00N 43°22' W 003°06'0 0.0
2018-Feb-24 00:30N 43°22' W 003°05'0 0.0
2018-Feb-24 00:00N 43°22' W 003°05'0 0.0
2018-Feb-23 23:30N 43°22' W 003°05'0 0.1
2018-Feb-23 23:00N 43°22' W 003°06'0 0.1
2018-Feb-23 22:30N 43°22' W 003°05'0 0.0
2018-Feb-23 22:00N 43°22' W 003°05'0 0.0
2018-Feb-23 21:30N 43°22' W 003°06'0 0.0
2018-Feb-23 21:00N 43°22' W 003°06'0 0.0
2018-Feb-23 20:30N 43°22' W 003°06'0 0.0
2018-Feb-23 20:00N 43°22' W 003°06'0 0.0
2018-Feb-23 19:30N 43°22' W 003°06'0 0.0
2018-Feb-23 19:00N 43°22' W 003°06'0 0.0
2018-Feb-23 18:30N 43°22' W 003°05'0 0.0
2018-Feb-23 18:00N 43°22' W 003°05'0 0.0
2018-Feb-23 17:30N 43°22' W 003°06'0 0.0
2018-Feb-23 17:00N 43°22' W 003°06'0 0.0
2018-Feb-23 16:30N 43°22' W 003°06'0 0.0
2018-Feb-23 16:00N 43°22' W 003°06'0 0.0
2018-Feb-23 15:30N 43°22' W 003°05'0 0.0
2018-Feb-23 15:00N 43°22' W 003°05'0 0.0
2018-Feb-23 14:30N 43°22' W 003°06'0 0.0
2018-Feb-23 14:00N 43°22' W 003°06'0 0.5
2018-Feb-23 13:30N 43°22' W 003°05'2 4.8
2018-Feb-23 13:00N 43°24' W 003°06'5 9.6
2018-Feb-23 12:30N 43°29' W 003°09'510.4
2018-Feb-23 12:00N 43°34' W 003°11'510.4
2018-Feb-23 11:30N 43°39' W 003°13'610.2
2018-Feb-23 10:54N 43°44' W 003°16'26110.0
2018-Feb-22 08:49N 47°48' W 005°29'4 9.7
2018-Feb-22 08:27N 47°52' W 005°31'5 9.5
2018-Feb-22 07:55N 47°56' W 005°33'4 9.0
2018-Feb-22 07:27N 48°00' W 005°36'5 8.7
2018-Feb-22 06:55N 48°05' W 005°38'4 8.5
2018-Feb-22 06:30N 48°08' W 005°40'4 8.2
2018-Feb-22 05:57N 48°12' W 005°42'4 8.3
2018-Feb-22 05:27N 48°16' W 005°44'5 7.9
2018-Feb-22 04:49N 48°21' W 005°47'2 7.9
2018-Feb-22 04:30N 48°23' W 005°49'6 7.9
2018-Feb-22 03:47N 48°28' W 005°52'8 7.8
2018-Feb-22 02:47N 48°36' W 005°56'113 9.5
2018-Feb-21 14:52N 49°43' W 003°37'511.1
2018-Feb-21 14:27N 49°45' W 003°31'510.9
2018-Feb-21 14:00N 49°48' W 003°24'510.5
2018-Feb-21 13:30N 49°51' W 003°17'510.1
2018-Feb-21 13:00N 49°53' W 003°11'5 9.5
2018-Feb-21 12:30N 49°55' W 003°04'4 9.0
2018-Feb-21 12:00N 49°57' W 002°58'4 8.5
2018-Feb-21 11:30N 49°58' W 002°52'5 8.0
2018-Feb-21 10:55N 49°60' W 002°45'4 7.8
2018-Feb-21 10:26N 50°01' W 002°39'5 7.7
2018-Feb-21 09:50N 50°02' W 002°32'22 9.1
2018-Feb-21 07:28N 50°07' W 001°59'511.3
2018-Feb-21 07:00N 50°09' W 001°52'612.1
2018-Feb-21 06:30N 50°11' W 001°43'612.7
2018-Feb-21 06:00N 50°12' W 001°33'713.0
2018-Feb-21 05:30N 50°14' W 001°23'713.1
2018-Feb-21 04:59N 50°16' W 001°13'2911.9
2018-Feb-21 02:35N 50°23' W 000°30'110.5
2018-Feb-21 02:30N 50°24' W 000°28'510.1
2018-Feb-21 02:00N 50°25' W 000°21'5 9.5
2018-Feb-21 01:30N 50°26' W 000°14'5 9.0
2018-Feb-21 01:00N 50°27' W 000°07'4 8.5
2018-Feb-21 00:30N 50°28' W 000°00'4 8.2
2018-Feb-21 00:00N 50°29' E 000°06'4 8.2
2018-Feb-20 23:30N 50°30' E 000°12'4 8.3
2018-Feb-20 23:00N 50°31' E 000°18'4 8.8
2018-Feb-20 22:30N 50°32' E 000°25'5 9.5
2018-Feb-20 22:00N 50°34' E 000°32'510.2
2018-Feb-20 21:30N 50°36' E 000°39'510.9
2018-Feb-20 21:00N 50°39' E 000°46'611.4
2018-Feb-20 20:30N 50°43' E 000°54'611.7
2018-Feb-20 20:00N 50°46' E 001°01'611.6
2018-Feb-20 19:30N 50°50' E 001°09'611.3
2018-Feb-20 19:00N 50°53' E 001°16'611.1
2018-Feb-20 18:30N 50°57' E 001°21'510.4
2018-Feb-20 18:00N 51°01' E 001°27'4 8.8
2018-Feb-20 17:30N 51°04' E 001°32'4 7.3
2018-Feb-20 17:00N 51°07' E 001°36'4 7.2
2018-Feb-20 16:30N 51°09' E 001°40'4 7.2
2018-Feb-20 16:00N 51°12' E 001°44'3 6.8
2018-Feb-20 15:30N 51°15' E 001°48'3 5.6
2018-Feb-20 15:00N 51°17' E 001°50'4 7.6
2018-Feb-20 14:30N 51°20' E 001°53'4 8.4
2018-Feb-20 14:00N 51°24' E 001°57'4 8.0
2018-Feb-20 13:30N 51°24' E 002°03'5 9.7
2018-Feb-20 13:00N 51°22' E 002°10'5 9.8
2018-Feb-20 12:31N 51°20' E 002°17'611.2
2018-Feb-20 12:00N 51°22' E 002°26'611.5
2018-Feb-20 11:31N 51°23' E 002°35'610.9
2018-Feb-20 11:00N 51°22' E 002°43'510.1
2018-Feb-20 10:30N 51°23' E 002°51'611.2
2018-Feb-20 10:00N 51°24' E 002°60'510.9
2018-Feb-20 09:30N 51°24' E 003°09'611.9
2018-Feb-20 09:00N 51°25' E 003°18'611.9
2018-Feb-20 08:30N 51°25' E 003°28'5 9.6
2018-Feb-20 08:00N 51°25' E 003°35'510.0
2018-Feb-20 07:30N 51°23' E 003°43'510.2
2018-Feb-20 07:00N 51°20' E 003°49'0 0.6
2018-Feb-20 06:30N 51°20' E 003°49'1 2.8
2018-Feb-20 06:00N 51°19' E 003°50'3 6.0
2018-Feb-20 05:31N 51°16' E 003°50'4 7.0
2018-Feb-20 05:00N 51°12' E 003°48'4 7.1
2018-Feb-20 04:30N 51°09' E 003°47'3 6.9
2018-Feb-20 04:01N 51°06' E 003°44'1 1.9
2018-Feb-20 03:31N 51°05' E 003°44'0 0.0
2018-Feb-20 03:00N 51°05' E 003°44'0 0.0
2018-Feb-20 02:28N 51°05' E 003°44'0 0.0
2018-Feb-20 01:58N 51°05' E 003°44'0 0.0
2018-Feb-20 01:28N 51°05' E 003°44'0 0.0
2018-Feb-20 00:53N 51°05' E 003°44'0 0.0
2018-Feb-20 00:29N 51°05' E 003°44'0 0.0
2018-Feb-20 00:00N 51°05' E 003°44'0 0.0
2018-Feb-19 23:30N 51°05' E 003°44'0 0.0
2018-Feb-19 23:00N 51°05' E 003°44'0 0.0
2018-Feb-19 22:31N 51°05' E 003°44'0 0.0
2018-Feb-19 22:00N 51°05' E 003°44'0 0.1
2018-Feb-19 21:30N 51°05' E 003°44'0 0.1
2018-Feb-19 21:00N 51°05' E 003°44'0 0.0
2018-Feb-19 20:30N 51°05' E 003°44'0 0.0
2018-Feb-19 20:00N 51°05' E 003°44'0 0.0
2018-Feb-19 19:30N 51°05' E 003°44'0 0.0
2018-Feb-19 18:59N 51°05' E 003°44'0 0.1
2018-Feb-19 18:30N 51°05' E 003°44'0 0.0
2018-Feb-19 18:00N 51°05' E 003°44'0 0.0
2018-Feb-19 17:30N 51°05' E 003°44'0 0.0
2018-Feb-19 17:00N 51°05' E 003°44'0 0.0
2018-Feb-19 16:30N 51°05' E 003°44'0 0.0
2018-Feb-19 16:00N 51°05' E 003°44'0 0.0
2018-Feb-19 15:27N 51°05' E 003°44'0 0.0
2018-Feb-19 14:55N 51°05' E 003°44'0 0.0
2018-Feb-19 14:30N 51°05' E 003°44'0 0.0
2018-Feb-19 14:00N 51°05' E 003°44'0 0.0
2018-Feb-19 13:30N 51°05' E 003°44'0 0.0
2018-Feb-19 12:58N 51°05' E 003°44'0 0.0
2018-Feb-19 12:25N 51°05' E 003°44'0 0.0
2018-Feb-19 12:01N 51°05' E 003°44'0 0.0
2018-Feb-19 11:31N 51°05' E 003°44'0 0.0
2018-Feb-19 11:00N 51°05' E 003°44'0 0.0
2018-Feb-19 10:30N 51°05' E 003°44'0 0.0
2018-Feb-19 10:00N 51°05' E 003°44'0 0.0
2018-Feb-19 09:29N 51°05' E 003°44'0 0.0
2018-Feb-19 08:59N 51°05' E 003°44'0 0.0
2018-Feb-19 08:30N 51°05' E 003°44'0 0.0
2018-Feb-19 08:00N 51°05' E 003°44'0 0.0
2018-Feb-19 07:28N 51°05' E 003°44'0 0.0
2018-Feb-19 06:58N 51°05' E 003°44'0 0.0
2018-Feb-19 06:29N 51°05' E 003°44'0 0.0
2018-Feb-19 06:00N 51°05' E 003°44'0 0.0
2018-Feb-19 05:30N 51°05' E 003°44'0 0.0
2018-Feb-19 04:59N 51°05' E 003°44'0 0.0
2018-Feb-19 04:30N 51°05' E 003°44'0 0.0
2018-Feb-19 04:01N 51°05' E 003°44'0 0.0
2018-Feb-19 03:30N 51°05' E 003°44'0 0.0
2018-Feb-19 03:00N 51°05' E 003°44'0 0.0
2018-Feb-19 02:30N 51°05' E 003°44'0 0.0
2018-Feb-19 02:00N 51°05' E 003°44'0 0.0
2018-Feb-19 01:28N 51°05' E 003°44'0 0.0
2018-Feb-19 01:00N 51°05' E 003°44'0 0.0
2018-Feb-19 00:28N 51°05' E 003°44'0 0.0
2018-Feb-19 00:01N 51°05' E 003°44'0 0.0
2018-Feb-18 23:30N 51°05' E 003°44'0 0.0
2018-Feb-18 23:00N 51°05' E 003°44'0 0.0
2018-Feb-18 22:31N 51°05' E 003°44'1 2.4
2018-Feb-18 22:00N 51°06' E 003°44'4 8.1
2018-Feb-18 21:30N 51°10' E 003°47'4 8.4
2018-Feb-18 21:00N 51°14' E 003°48'4 8.0
2018-Feb-18 20:30N 51°18' E 003°50'2 4.6
2018-Feb-18 20:01N 51°20' E 003°49'1 2.2
2018-Feb-18 19:30N 51°21' E 003°48'4 7.3
2018-Feb-18 19:00N 51°23' E 003°43'3 6.5
2018-Feb-18 18:30N 51°25' E 003°40'3 6.8
2018-Feb-18 18:00N 51°26' E 003°34'3 6.6
2018-Feb-18 17:31N 51°28' E 003°31'4 8.2
2018-Feb-18 17:01N 51°31' E 003°26'4 8.2
2018-Feb-18 16:30N 51°35' E 003°24'4 9.0
2018-Feb-18 16:00N 51°39' E 003°20'5 8.9
2018-Feb-18 15:27N 51°43' E 003°17'4 8.0
2018-Feb-18 14:57N 51°47' E 003°21'1 0.7
2018-Feb-18 13:48N 51°47' E 003°22'0 0.1
2018-Feb-18 13:27N 51°47' E 003°22'0 0.1
2018-Feb-18 12:39N 51°47' E 003°22'0 0.0
2018-Feb-18 12:06N 51°47' E 003°22'0 0.1
2018-Feb-18 11:57N 51°47' E 003°22'0 0.0
2018-Feb-18 11:27N 51°47' E 003°22'0 0.0
2018-Feb-18 11:00N 51°47' E 003°22'0 0.0
2018-Feb-18 10:30N 51°47' E 003°22'0 0.0
2018-Feb-18 09:51N 51°47' E 003°22'0 0.0
2018-Feb-18 09:21N 51°47' E 003°22'0 0.0
2018-Feb-18 08:54N 51°47' E 003°22'0 0.1
2018-Feb-18 08:27N 51°47' E 003°22'0 0.1
2018-Feb-18 07:54N 51°47' E 003°22'0 0.0
2018-Feb-18 07:30N 51°47' E 003°22'0 0.0
2018-Feb-18 06:48N 51°47' E 003°22'0 0.0
2018-Feb-18 06:24N 51°47' E 003°22'0 0.0
2018-Feb-18 04:36N 51°47' E 003°22'0 0.0
2018-Feb-18 03:51N 51°47' E 003°22'0 0.0
2018-Feb-18 03:18N 51°47' E 003°22'0 0.0
2018-Feb-18 03:00N 51°47' E 003°22'0 0.0
2018-Feb-18 01:42N 51°47' E 003°22'0 0.1
2018-Feb-17 23:54N 51°47' E 003°22'0 0.0
2018-Feb-17 23:24N 51°47' E 003°22'0 0.0
2018-Feb-17 23:00N 51°47' E 003°22'0 0.0
2018-Feb-17 22:12N 51°47' E 003°22'0 0.0
2018-Feb-17 21:06N 51°47' E 003°22'0 0.0
2018-Feb-17 20:48N 51°47' E 003°22'0 0.0
2018-Feb-17 20:27N 51°47' E 003°22'0 0.1
2018-Feb-17 18:09N 51°47' E 003°22'0 0.0
2018-Feb-17 17:57N 51°47' E 003°22'0 0.0
2018-Feb-17 17:17N 51°47' E 003°22'0 0.0
2018-Feb-17 16:57N 51°47' E 003°22'0 0.0
2018-Feb-17 16:26N 51°47' E 003°22'0 0.0
2018-Feb-17 15:59N 51°47' E 003°22'0 0.0
2018-Feb-17 15:27N 51°47' E 003°22'1 1.7
2018-Feb-17 14:59N 51°46' E 003°21'4 7.9
2018-Feb-17 14:28N 51°44' E 003°16'511.3
2018-Feb-17 13:59N 51°39' E 003°20'510.9
2018-Feb-17 13:30N 51°35' E 003°24'510.2
2018-Feb-17 13:00N 51°30' E 003°28'5 9.1
2018-Feb-17 12:30N 51°27' E 003°33'4 7.7
2018-Feb-17 12:00N 51°25' E 003°39'4 8.0
2018-Feb-17 11:30N 51°23' E 003°44'5 9.0
2018-Feb-17 11:00N 51°21' E 003°51'4 9.2
2018-Feb-17 10:30N 51°23' E 003°57'4 7.9
2018-Feb-17 10:00N 51°26' E 004°01'5 9.9
2018-Feb-17 09:30N 51°22' E 004°07'4 8.0
2018-Feb-17 09:00N 51°22' E 004°13'3 6.3
2018-Feb-17 08:30N 51°21' E 004°17'0 0.0
2018-Feb-17 08:00N 51°21' E 004°17'0 0.7
2018-Feb-17 07:30N 51°21' E 004°18'3 5.3
2018-Feb-17 07:00N 51°18' E 004°20'3 5.7
2018-Feb-17 06:31N 51°16' E 004°22'0 0.1
2018-Feb-17 05:59N 51°16' E 004°22'0 0.0
2018-Feb-17 05:29N 51°16' E 004°22'0 0.0
2018-Feb-17 04:59N 51°16' E 004°22'0 0.0
2018-Feb-17 04:29N 51°16' E 004°22'0 0.0
2018-Feb-17 03:56N 51°16' E 004°22'0 0.0
2018-Feb-17 03:29N 51°16' E 004°22'0 0.0
2018-Feb-17 02:59N 51°16' E 004°22'0 0.0
2018-Feb-17 02:29N 51°16' E 004°22'0 0.0
2018-Feb-17 01:59N 51°16' E 004°22'0 0.0
2018-Feb-17 01:29N 51°16' E 004°22'0 0.0
2018-Feb-17 00:59N 51°16' E 004°22'0 0.0
2018-Feb-17 00:29N 51°16' E 004°22'0 0.0
2018-Feb-16 23:59N 51°16' E 004°22'0 0.0
2018-Feb-16 23:29N 51°16' E 004°22'0 0.5
2018-Feb-16 23:00N 51°16' E 004°21'1 2.7
2018-Feb-16 22:31N 51°17' E 004°20'0 0.0
2018-Feb-16 22:01N 51°17' E 004°20'2 3.5
2018-Feb-16 21:31N 51°18' E 004°18'1 1.1
2018-Feb-16 20:58N 51°18' E 004°17'0 0.0
2018-Feb-16 20:30N 51°18' E 004°17'0 0.0
2018-Feb-16 19:58N 51°18' E 004°17'0 0.0
2018-Feb-16 19:27N 51°18' E 004°17'0 0.0
2018-Feb-16 19:01N 51°18' E 004°17'0 0.0
2018-Feb-16 18:30N 51°18' E 004°17'0 0.0
2018-Feb-16 17:58N 51°18' E 004°17'0 0.0
2018-Feb-16 17:31N 51°18' E 004°17'0 0.0
2018-Feb-16 16:57N 51°18' E 004°17'0 0.0
2018-Feb-16 16:25N 51°18' E 004°17'0 0.0
2018-Feb-16 15:57N 51°18' E 004°17'0 0.0
2018-Feb-16 15:30N 51°18' E 004°17'0 0.0
2018-Feb-16 15:01N 51°18' E 004°17'0 0.0
2018-Feb-16 14:31N 51°18' E 004°17'0 0.0
2018-Feb-16 14:00N 51°18' E 004°17'0 0.0
2018-Feb-16 13:31N 51°18' E 004°17'0 0.0
2018-Feb-16 13:00N 51°18' E 004°17'0 0.0
2018-Feb-16 12:27N 51°18' E 004°17'0 0.0
2018-Feb-16 11:54N 51°18' E 004°17'0 0.0
2018-Feb-16 11:30N 51°18' E 004°17'0 0.0
2018-Feb-16 11:00N 51°18' E 004°17'0 0.0
2018-Feb-16 10:31N 51°18' E 004°17'0 0.1
2018-Feb-16 10:00N 51°18' E 004°17'0 0.0
2018-Feb-16 09:24N 51°18' E 004°17'0 0.0
2018-Feb-16 09:00N 51°18' E 004°17'0 0.0
2018-Feb-16 08:30N 51°18' E 004°17'0 0.0
2018-Feb-16 08:00N 51°18' E 004°17'0 0.0
2018-Feb-16 07:27N 51°18' E 004°17'0 0.0
2018-Feb-16 06:57N 51°18' E 004°17'0 0.0
2018-Feb-16 06:30N 51°18' E 004°17'0 0.0
2018-Feb-16 05:58N 51°18' E 004°17'0 0.0
2018-Feb-16 05:30N 51°18' E 004°17'0 0.0
2018-Feb-16 04:55N 51°18' E 004°17'0 0.0
2018-Feb-16 04:31N 51°18' E 004°17'0 0.0
2018-Feb-16 04:00N 51°18' E 004°17'0 0.0
2018-Feb-16 03:28N 51°18' E 004°17'0 0.0
2018-Feb-16 03:00N 51°18' E 004°17'0 0.0
2018-Feb-16 02:31N 51°18' E 004°17'0 0.0
2018-Feb-16 02:01N 51°18' E 004°17'0 0.0
2018-Feb-16 01:30N 51°18' E 004°17'0 0.0
2018-Feb-16 01:00N 51°18' E 004°17'0 0.0
2018-Feb-16 00:31N 51°18' E 004°17'0 0.0
2018-Feb-15 23:57N 51°18' E 004°17'0 0.0
2018-Feb-15 23:30N 51°18' E 004°17'0 0.0
2018-Feb-15 23:00N 51°18' E 004°17'0 0.0
2018-Feb-15 22:22N 51°18' E 004°17'0 0.1
2018-Feb-15 22:01N 51°18' E 004°17'0 0.0
2018-Feb-15 21:30N 51°18' E 004°17'2 3.5
2018-Feb-15 21:00N 51°20' E 004°16'4 7.6
2018-Feb-15 20:30N 51°23' E 004°13'3 5.8
2018-Feb-15 20:00N 51°22' E 004°08'4 7.4
2018-Feb-15 19:30N 51°23' E 004°03'4 7.0
2018-Feb-15 19:00N 51°26' E 004°00'4 7.1
2018-Feb-15 18:30N 51°23' E 003°57'3 6.6
2018-Feb-15 18:00N 51°21' E 003°53'3 6.2
2018-Feb-15 17:30N 51°21' E 003°48'3 6.7
2018-Feb-15 17:00N 51°23' E 003°43'3 6.8
2018-Feb-15 16:30N 51°25' E 003°39'2 3.6
2018-Feb-15 15:59N 51°25' E 003°36'0 0.2
2018-Feb-15 15:30N 51°25' E 003°36'0 0.3
2018-Feb-15 15:00N 51°25' E 003°37'0 0.0
2018-Feb-15 14:30N 51°25' E 003°37'0 0.0
2018-Feb-15 14:00N 51°25' E 003°37'0 0.1
2018-Feb-15 13:30N 51°25' E 003°37'0 0.8
2018-Feb-15 13:00N 51°25' E 003°37'510.7
2018-Feb-15 12:30N 51°25' E 003°29'613.1
2018-Feb-15 12:00N 51°24' E 003°18'612.8
2018-Feb-15 11:30N 51°23' E 003°08'612.2
2018-Feb-15 11:00N 51°22' E 002°59'611.1
2018-Feb-15 10:30N 51°21' E 002°50'4 8.7
2018-Feb-15 10:00N 51°22' E 002°43'4 8.9
2018-Feb-15 09:30N 51°22' E 002°36'5 9.1
2018-Feb-15 08:59N 51°22' E 002°28'4 8.4
2018-Feb-15 08:30N 51°20' E 002°22'4 7.3
2018-Feb-15 07:59N 51°18' E 002°17'4 8.9
2018-Feb-15 07:30N 51°16' E 002°11'5 9.2
2018-Feb-15 07:00N 51°14' E 002°05'4 8.8
2018-Feb-15 06:30N 51°12' E 001°59'5 9.5
2018-Feb-15 06:00N 51°10' E 001°52'5 9.1
2018-Feb-15 05:30N 51°07' E 001°46'4 8.8
2018-Feb-15 05:00N 51°03' E 001°41'4 8.5
2018-Feb-15 04:30N 50°60' E 001°37'5 9.1
2018-Feb-15 04:00N 50°57' E 001°32'4 8.7
2018-Feb-15 03:30N 50°53' E 001°28'5 9.3
2018-Feb-15 03:00N 50°49' E 001°27'610.3
2018-Feb-15 02:24N 50°43' E 001°23'4 9.4
2018-Feb-15 02:00N 50°40' E 001°19'47 9.5
2018-Feb-14 21:03N 50°22' E 000°10'0 9.9
2018-Feb-14 21:00N 50°22' E 000°09'5 9.8
2018-Feb-14 20:30N 50°21' E 000°02'5 9.9
2018-Feb-14 20:00N 50°20' W 000°06'510.4
2018-Feb-14 19:30N 50°18' W 000°14'  

Dump ship's entire track history